Azalea Park, Florida
Current Conditions -  °F | °C
As of 4:53 AM on Saturday 01 Nov 2014 (Local Time) from KORL Reporting Station
Overcast Overcast  
Wind Chill: 61°   Ceiling: 9000
Heat Index: 61°   Visibility: 10mi
Dew Point: 50°   Wind: 7mph
Humidity: 67%   Direction: 270°W
Pressure: 29.88"   Gusts: NA
Location:  28.5525°N, 81.3003°W
Report Text: KORL 010853Z AUTO 27006KT 10SM FEW065 BKN090 OVC100 16/10 A2988 RMK AO2 SLP120 T01610100 55006
Loading
Personal Weather Stations






























Interactive Weather Map New forecast layout! Learn more

10-Day Weather Forecast

Advertisements
Track Severe Weather on mobile